This is the latest recevied weather packets stored in our database for station/object VK4SSH. If no packets are shown the sender has not sent any weather packets the latest 10 day(s).
| Time | Temp. | Humidity | Pressure | Rain* | Wind** | Luminosity | Snow |
|---|---|---|---|---|---|---|---|
| 1777174523 | 21.67° C | 82% | - | 0 mm | - | - | - |
| 1777173923 | 21.67° C | 82% | - | 0 mm | - | - | - |
| 1777173323 | 21.11° C | 84% | - | 0 mm | - | - | - |
| 1777172723 | 21.11° C | 85% | - | 0.51 mm | - | - | - |
| 1777172123 | 20.56° C | 87% | - | 0.51 mm | - | - | - |
| 1777171523 | 20° C | 90% | - | 0.51 mm | - | - | - |
| 1777170923 | 19.44° C | 92% | - | 0.76 mm | - | - | - |
| 1777170323 | 19.44° C | 94% | - | 0.76 mm | - | - | - |
| 1777169723 | 20° C | 93% | - | 0.76 mm | - | - | - |
| 1777169123 | 20° C | 90% | - | 0.51 mm | - | - | - |
| 1777168523 | 19.44° C | 94% | - | 0.76 mm | - | - | - |
| 1777167923 | 19.44° C | 93% | - | 0.76 mm | - | - | - |
| 1777167323 | 19.44° C | 93% | - | 0.51 mm | - | - | - |
| 1777166723 | 19.44° C | 92% | - | 0.51 mm | - | - | - |
| 1777166123 | 19.44° C | 92% | - | 0.51 mm | - | - | - |
| 1777165523 | 20° C | 90% | - | 0.51 mm | - | - | - |
| 1777164923 | 20.56° C | 86% | - | 0 mm | - | - | - |
| 1777164323 | 20.56° C | 82% | - | 0 mm | - | - | - |
| 1777163723 | 20.56° C | 85% | - | 0 mm | - | - | - |
| 1777163123 | 21.11° C | 81% | - | 0 mm | - | - | - |
| 1777161923 | 22.22° C | 76% | - | 0 mm | - | - | - |
| 1777161325 | 21.67° C | 79% | - | 0.51 mm | - | - | - |
| 1777160723 | 20.56° C | 81% | - | 0.51 mm | - | - | - |
| 1777160123 | 19.44° C | 85% | - | 0.51 mm | - | - | - |
| 1777159523 | 18.89° C | 88% | - | 0.51 mm | - | - | - |
* Rain latest hour (hover to see other rain measurements)
** Current wind speed in m/s (hover to see current wind gust speed)